Time;durP1;ratioP1;P1;durP2;ratioP2;P2;SDS_P1;SDS_P2;PMS_P1;PMS_P2;Temp;Humidity;BMP_temperature;BMP_pressure;BME280_temperature;BME280_humidity;BME280_pressure;Samples;Min_cycle;Max_cycle;Signal;HPM_P1;HPM_P2
2021/01/12 00:00:40;;;;;;;13.07;8.50;;;5.50;99.90;;;;;;5028076;28;20214;-65
2021/01/12 00:03:06;;;;;;;12.43;9.10;;;5.50;99.90;;;;;;5034389;28;20196;-64
2021/01/12 00:05:32;;;;;;;15.13;9.43;;;5.60;99.90;;;;;;5022378;28;20223;-64
2021/01/12 00:07:57;;;;;;;11.73;9.13;;;5.60;99.90;;;;;;5014379;28;20172;-64
2021/01/12 00:10:24;;;;;;;15.87;8.97;;;5.50;99.90;;;;;;5024183;28;20604;-64
2021/01/12 00:12:52;;;;;;;13.13;9.70;;;5.50;99.90;;;;;;5032989;28;20468;-65
2021/01/12 00:15:18;;;;;;;14.43;9.57;;;5.50;99.90;;;;;;5025575;28;20211;-65
2021/01/12 00:17:43;;;;;;;13.03;9.10;;;5.50;99.90;;;;;;5014221;28;20187;-64
2021/01/12 00:20:11;;;;;;;11.27;8.70;;;5.50;99.90;;;;;;5031491;28;20278;-65
2021/01/12 00:22:37;;;;;;;12.37;9.30;;;5.50;99.90;;;;;;5034054;28;20210;-63
2021/01/12 00:25:04;;;;;;;12.73;9.47;;;5.50;99.90;;;;;;5032402;28;20211;-64
2021/01/12 00:27:30;;;;;;;9.80;8.80;;;5.50;99.90;;;;;;5033734;28;20199;-64
2021/01/12 00:29:55;;;;;;;15.83;9.63;;;5.50;99.90;;;;;;5019875;28;20226;-65
2021/01/12 00:32:24;;;;;;;12.30;8.57;;;5.50;99.90;;;;;;5014101;28;20169;-64
2021/01/12 00:34:50;;;;;;;10.30;8.20;;;5.50;99.90;;;;;;5026220;28;20741;-64
2021/01/12 00:37:18;;;;;;;13.17;9.23;;;5.50;99.90;;;;;;5033531;28;20173;-64
2021/01/12 00:39:44;;;;;;;12.67;9.40;;;5.50;99.90;;;;;;5022595;28;20234;-65
2021/01/12 00:42:09;;;;;;;11.47;9.43;;;5.40;99.90;;;;;;5013899;28;20286;-64
2021/01/12 00:44:35;;;;;;;13.47;9.57;;;5.40;99.90;;;;;;5022761;28;20203;-65
2021/01/12 00:47:01;;;;;;;15.50;11.27;;;5.40;99.90;;;;;;5027661;28;20181;-64
2021/01/12 00:49:26;;;;;;;11.50;9.30;;;5.40;99.90;;;;;;5013714;28;20165;-64
2021/01/12 00:51:53;;;;;;;14.17;10.90;;;5.40;99.90;;;;;;5016827;28;20214;-64
2021/01/12 00:54:22;;;;;;;11.77;9.13;;;5.40;99.90;;;;;;5033455;28;20195;-64
2021/01/12 00:56:48;;;;;;;11.37;9.37;;;5.40;99.90;;;;;;5030626;28;20183;-64
2021/01/12 00:59:14;;;;;;;11.13;8.47;;;5.40;99.90;;;;;;5013551;28;20247;-65
2021/01/12 01:01:40;;;;;;;14.03;9.83;;;5.40;99.90;;;;;;5014956;28;20294;-65
2021/01/12 01:04:06;;;;;;;14.63;10.87;;;5.40;99.90;;;;;;5013506;28;20250;-65
2021/01/12 01:06:32;;;;;;;12.70;9.10;;;5.40;99.90;;;;;;5015436;28;20179;-65
2021/01/12 01:08:58;;;;;;;11.87;10.00;;;5.40;99.90;;;;;;5032826;28;20171;-65
2021/01/12 01:11:23;;;;;;;11.07;8.63;;;5.40;99.90;;;;;;5032472;28;20180;-65
2021/01/12 01:13:49;;;;;;;13.37;9.43;;;5.40;99.90;;;;;;5013473;28;20195;-63
2021/01/12 01:16:15;;;;;;;11.27;9.40;;;5.40;99.90;;;;;;5022466;28;20274;-64
2021/01/12 01:18:40;;;;;;;11.10;7.77;;;5.40;99.90;;;;;;5032728;28;20202;-65
2021/01/12 01:21:10;;;;;;;13.33;8.87;;;5.40;99.90;;;;;;5021409;28;20188;-65
2021/01/12 01:23:35;;;;;;;11.67;8.63;;;5.50;99.90;;;;;;5013179;28;20184;-64
2021/01/12 01:26:01;;;;;;;8.40;7.57;;;5.50;99.90;;;;;;5022743;28;20555;-65
2021/01/12 01:28:26;;;;;;;10.93;8.10;;;5.50;99.90;;;;;;5032568;28;20174;-64
2021/01/12 01:30:53;;;;;;;10.43;7.90;;;5.50;99.90;;;;;;5023620;28;20768;-65
2021/01/12 01:33:20;;;;;;;13.43;9.00;;;5.40;99.90;;;;;;5013156;28;20177;-65
2021/01/12 01:35:46;;;;;;;13.87;8.80;;;5.40;99.90;;;;;;5019660;28;20179;-65
2021/01/12 01:38:12;;;;;;;11.40;8.33;;;5.40;99.90;;;;;;5031083;28;20175;-65
2021/01/12 01:40:38;;;;;;;8.77;6.90;;;5.40;99.90;;;;;;5027309;28;20547;-65
2021/01/12 01:43:04;;;;;;;12.57;8.00;;;5.40;99.90;;;;;;5013357;28;20204;-65
2021/01/12 01:45:30;;;;;;;12.57;8.93;;;5.40;99.90;;;;;;5032475;28;20199;-65
2021/01/12 01:47:56;;;;;;;12.03;8.57;;;5.40;99.90;;;;;;5032275;28;20534;-65
2021/01/12 01:50:23;;;;;;;11.47;7.77;;;5.40;99.90;;;;;;5013139;28;20184;-65
2021/01/12 01:52:54;;;;;;;10.13;7.50;;;5.40;99.90;;;;;;5012600;28;20271;-65
2021/01/12 01:55:21;;;;;;;12.37;8.33;;;5.40;99.90;;;;;;5030606;28;20211;-65
2021/01/12 01:57:46;;;;;;;8.93;7.40;;;5.40;99.90;;;;;;5029705;28;20255;-64
2021/01/12 02:00:17;;;;;;;10.53;7.57;;;5.30;99.90;;;;;;5012605;28;20263;-65
2021/01/12 02:03:00;;;;;;;10.33;7.07;;;5.30;99.90;;;;;;5012493;28;20630;-64
2021/01/12 02:05:34;;;;;;;9.90;7.63;;;5.30;99.90;;;;;;5030880;28;20621;-65
2021/01/12 02:08:06;;;;;;;7.70;6.57;;;5.30;99.90;;;;;;5031331;28;20191;-65
2021/01/12 02:10:37;;;;;;;8.77;7.27;;;5.30;99.90;;;;;;5032204;28;20167;-65
2021/01/12 02:13:06;;;;;;;7.27;6.53;;;5.30;99.90;;;;;;5017186;28;20180;-65
2021/01/12 02:15:32;;;;;;;7.33;6.33;;;5.30;99.90;;;;;;5012167;28;20192;-65
2021/01/12 02:17:58;;;;;;;8.23;6.10;;;5.30;99.90;;;;;;5025315;28;20233;-65
2021/01/12 02:20:27;;;;;;;9.77;6.47;;;5.30;99.90;;;;;;5031867;28;20176;-65
2021/01/12 02:23:09;;;;;;;6.30;5.50;;;5.30;99.90;;;;;;5019358;28;20615;-65
2021/01/12 02:25:36;;;;;;;6.53;5.13;;;5.40;99.90;;;;;;5012059;28;20204;-65
2021/01/12 02:28:08;;;;;;;8.07;5.13;;;5.40;99.90;;;;;;5024605;28;20176;-65
2021/01/12 02:30:35;;;;;;;6.63;4.83;;;5.40;99.90;;;;;;5031030;28;20206;-64
2021/01/12 02:33:01;;;;;;;5.93;4.63;;;5.50;99.90;;;;;;5019363;28;20326;-65
2021/01/12 02:35:29;;;;;;;5.43;4.93;;;5.50;99.90;;;;;;5012022;28;20464;-65
2021/01/12 02:37:56;;;;;;;5.80;5.20;;;5.50;99.90;;;;;;5022425;28;20179;-65
2021/01/12 02:40:22;;;;;;;6.07;5.10;;;5.50;99.90;;;;;;5031634;28;20168;-64
2021/01/12 02:42:48;;;;;;;6.17;4.70;;;5.50;99.90;;;;;;5022101;28;20215;-65
2021/01/12 02:45:14;;;;;;;4.47;4.07;;;5.50;99.90;;;;;;5011561;28;20693;-64
2021/01/12 02:47:39;;;;;;;4.67;4.20;;;5.60;99.90;;;;;;5019065;28;20171;-64
2021/01/12 02:50:07;;;;;;;5.70;4.43;;;5.60;99.90;;;;;;5031663;28;20172;-65
2021/01/12 02:52:33;;;;;;;4.27;3.87;;;5.60;99.90;;;;;;5025079;28;20184;-65
2021/01/12 02:54:59;;;;;;;4.53;4.13;;;5.60;99.90;;;;;;5011669;28;20203;-65
2021/01/12 02:57:25;;;;;;;5.23;3.77;;;5.60;99.90;;;;;;5015691;28;20656;-65
2021/01/12 02:59:50;;;;;;;4.87;4.17;;;5.60;99.90;;;;;;5031313;28;20182;-64
2021/01/12 03:02:16;;;;;;;3.73;3.37;;;5.60;99.90;;;;;;5011684;28;20258;-64
2021/01/12 03:04:41;;;;;;;4.23;3.37;;;5.70;99.90;;;;;;5011801;28;20280;-65
2021/01/12 03:07:07;;;;;;;4.23;3.83;;;5.70;99.90;;;;;;5012073;28;20302;-65
2021/01/12 03:09:33;;;;;;;4.40;4.00;;;5.70;99.90;;;;;;5011605;28;20183;-65
2021/01/12 03:11:58;;;;;;;5.73;4.33;;;5.70;99.90;;;;;;5027952;28;20179;-65
2021/01/12 03:14:24;;;;;;;5.30;3.80;;;5.70;99.90;;;;;;5032914;28;20641;-65
2021/01/12 03:16:53;;;;;;;4.83;3.90;;;5.70;99.90;;;;;;5020215;28;20223;-65
2021/01/12 03:19:19;;;;;;;4.43;4.03;;;5.70;99.90;;;;;;5015416;28;20277;-65
2021/01/12 03:21:45;;;;;;;3.60;3.30;;;5.70;99.90;;;;;;5028766;28;20650;-64
2021/01/12 03:24:11;;;;;;;3.67;3.37;;;5.70;99.90;;;;;;5035122;28;20202;-64
2021/01/12 03:26:37;;;;;;;4.13;3.07;;;5.70;99.90;;;;;;5023216;28;20641;-65
2021/01/12 03:29:03;;;;;;;5.00;3.47;;;5.70;99.90;;;;;;5016296;28;20610;-64
2021/01/12 03:31:29;;;;;;;3.63;3.33;;;5.70;99.90;;;;;;5015340;28;20176;-64
2021/01/12 03:33:55;;;;;;;3.80;3.43;;;5.70;99.90;;;;;;5021074;28;20272;-65
2021/01/12 03:36:21;;;;;;;3.73;3.43;;;5.80;99.90;;;;;;5035062;28;20645;-65
2021/01/12 03:38:47;;;;;;;4.27;3.87;;;5.80;99.90;;;;;;5030291;28;20275;-64
2021/01/12 03:41:12;;;;;;;3.67;3.37;;;5.80;99.90;;;;;;5015103;28;20180;-64
2021/01/12 03:43:38;;;;;;;4.13;3.73;;;5.80;99.90;;;;;;5017587;28;20731;-65
2021/01/12 03:46:04;;;;;;;4.27;3.37;;;5.80;99.90;;;;;;5034962;28;20180;-64
2021/01/12 03:48:29;;;;;;;5.03;3.13;;;5.80;99.90;;;;;;5033316;28;20183;-65
2021/01/12 03:50:55;;;;;;;4.00;3.53;;;5.80;99.90;;;;;;5014945;28;20176;-65
2021/01/12 03:53:20;;;;;;;4.53;4.10;;;5.80;99.90;;;;;;5014787;28;20677;-64
2021/01/12 03:55:46;;;;;;;3.80;3.40;;;5.80;99.90;;;;;;5033794;28;20529;-65
2021/01/12 03:58:11;;;;;;;4.30;3.27;;;5.80;99.90;;;;;;5019479;28;20259;-65
2021/01/12 04:00:37;;;;;;;4.00;3.50;;;5.80;99.90;;;;;;5032693;28;20249;-65
2021/01/12 04:03:03;;;;;;;4.20;3.70;;;5.80;99.90;;;;;;5021211;28;20251;-65
2021/01/12 04:05:29;;;;;;;4.03;3.73;;;5.80;99.90;;;;;;5014883;28;20302;-65
2021/01/12 04:08:00;;;;;;;3.53;3.10;;;5.80;99.90;;;;;;5025516;28;20206;-65
2021/01/12 04:10:26;;;;;;;4.43;3.87;;;5.80;99.90;;;;;;5034380;28;20583;-65
2021/01/12 04:12:52;;;;;;;4.47;3.80;;;5.80;99.90;;;;;;5023899;28;20262;-64
2021/01/12 04:15:17;;;;;;;3.70;3.40;;;5.80;99.90;;;;;;5014370;28;20210;-65
2021/01/12 04:17:43;;;;;;;4.40;3.53;;;5.80;99.90;;;;;;5022657;28;20191;-65
2021/01/12 04:20:09;;;;;;;4.33;3.73;;;5.80;99.90;;;;;;5034313;28;20587;-65
2021/01/12 04:22:35;;;;;;;4.43;4.03;;;5.80;99.90;;;;;;5026902;28;20539;-65
2021/01/12 04:25:01;;;;;;;4.07;3.67;;;5.80;99.90;;;;;;5016352;28;20269;-64
2021/01/12 04:27:27;;;;;;;4.00;3.40;;;5.80;99.90;;;;;;5033034;28;20183;-64
2021/01/12 04:29:52;;;;;;;3.63;3.23;;;5.80;99.90;;;;;;5032957;28;20172;-64
2021/01/12 04:32:18;;;;;;;4.00;3.60;;;5.80;99.90;;;;;;5014529;28;20219;-65
2021/01/12 04:34:43;;;;;;;4.27;3.70;;;5.80;99.90;;;;;;5014181;28;20732;-65
2021/01/12 04:37:09;;;;;;;4.53;3.23;;;5.80;99.90;;;;;;5032200;28;20250;-64
2021/01/12 04:39:34;;;;;;;4.23;3.67;;;5.80;99.90;;;;;;5033689;28;20183;-64
2021/01/12 04:42:00;;;;;;;2.90;2.70;;;5.80;99.90;;;;;;5016250;28;20579;-65
2021/01/12 04:44:26;;;;;;;4.53;3.27;;;5.80;99.90;;;;;;5012906;28;20274;-65
2021/01/12 04:46:51;;;;;;;3.57;3.27;;;5.80;99.90;;;;;;5029177;28;20633;-64
2021/01/12 04:49:17;;;;;;;3.87;3.27;;;5.80;99.90;;;;;;5033604;28;20178;-64
2021/01/12 04:51:43;;;;;;;4.17;3.77;;;5.80;99.90;;;;;;5020756;28;20176;-65
2021/01/12 04:54:09;;;;;;;4.07;2.80;;;5.80;99.90;;;;;;5013962;28;20246;-64
2021/01/12 04:56:34;;;;;;;3.23;3.00;;;5.80;99.90;;;;;;5025907;28;20493;-64
2021/01/12 04:59:00;;;;;;;3.77;3.40;;;5.80;99.90;;;;;;5033290;28;20687;-65
2021/01/12 05:01:29;;;;;;;3.80;3.20;;;5.80;99.90;;;;;;5022730;28;20274;-64
2021/01/12 05:03:54;;;;;;;3.53;3.23;;;5.80;99.90;;;;;;5013786;28;20199;-65
2021/01/12 05:06:22;;;;;;;4.17;3.23;;;5.80;99.90;;;;;;5022588;28;20184;-65
2021/01/12 05:09:00;;;;;;;3.60;3.30;;;5.90;99.90;;;;;;5033047;28;20274;-64
2021/01/12 05:11:27;;;;;;;3.57;3.27;;;5.90;99.90;;;;;;5023675;28;20278;-64
2021/01/12 05:13:56;;;;;;;4.27;3.10;;;5.90;99.90;;;;;;5013528;28;20254;-65
2021/01/12 05:16:25;;;;;;;3.67;3.27;;;5.90;99.90;;;;;;5021583;28;20641;-64
2021/01/12 05:18:52;;;;;;;4.73;3.70;;;5.90;99.90;;;;;;5033193;28;20175;-64
2021/01/12 05:21:18;;;;;;;5.03;3.30;;;5.90;99.90;;;;;;5027854;28;20558;-64
2021/01/12 05:24:05;;;;;;;3.27;2.77;;;5.90;99.90;;;;;;5013400;28;20196;-64
2021/01/12 05:26:37;;;;;;;3.10;2.80;;;5.90;99.90;;;;;;5055442;23;20253;-61
2021/01/12 05:29:05;;;;;;;3.90;3.10;;;5.90;99.90;;;;;;5032336;28;20315;-63
2021/01/12 05:31:31;;;;;;;4.67;2.97;;;5.90;99.90;;;;;;5013114;28;20180;-63
2021/01/12 05:34:06;;;;;;;3.40;2.97;;;5.90;99.90;;;;;;5013389;28;20520;-62
2021/01/12 05:36:46;;;;;;;3.60;3.30;;;5.90;99.90;;;;;;5049619;28;20225;-64
2021/01/12 05:39:17;;;;;;;3.57;3.20;;;5.90;99.90;;;;;;5052074;28;20256;-61
2021/01/12 05:41:45;;;;;;;3.50;3.20;;;5.90;99.90;;;;;;5012915;28;20563;-62
2021/01/12 05:44:22;;;;;;;4.33;3.40;;;5.90;99.90;;;;;;5012904;28;20175;-62
2021/01/12 05:46:51;;;;;;;2.70;2.50;;;5.90;99.90;;;;;;5011274;28;20596;-59
2021/01/12 05:49:18;;;;;;;3.30;2.87;;;6.00;99.90;;;;;;5045908;28;20175;-62
2021/01/12 05:51:45;;;;;;;4.63;3.10;;;5.90;99.90;;;;;;5052516;28;20507;-60
2021/01/12 05:54:26;;;;;;;3.37;3.07;;;6.00;99.90;;;;;;5036713;28;20191;-62
2021/01/12 05:56:56;;;;;;;2.67;2.47;;;6.00;99.90;;;;;;5031213;28;20268;-62
2021/01/12 05:59:26;;;;;;;4.27;2.80;;;6.00;99.90;;;;;;5051756;28;20178;-63
2021/01/12 06:01:59;;;;;;;3.00;2.80;;;6.00;99.90;;;;;;5051901;28;20702;-63
2021/01/12 06:04:25;;;;;;;2.90;2.70;;;6.00;99.90;;;;;;5012501;28;20168;-64
2021/01/12 06:06:53;;;;;;;2.67;2.47;;;6.00;99.90;;;;;;5012351;28;20548;-62
2021/01/12 06:09:20;;;;;;;3.33;2.70;;;6.00;99.90;;;;;;5051259;28;20187;-64
2021/01/12 06:11:52;;;;;;;2.73;2.53;;;6.10;99.90;;;;;;5052117;28;20253;-62
2021/01/12 06:14:20;;;;;;;3.30;2.97;;;6.10;99.90;;;;;;5032841;28;20177;-63
2021/01/12 06:16:46;;;;;;;2.53;2.33;;;6.10;99.90;;;;;;5041599;28;20601;-64
2021/01/12 06:19:13;;;;;;;3.17;2.73;;;6.00;99.90;;;;;;5051683;28;20221;-62
2021/01/12 06:21:54;;;;;;;2.77;2.43;;;6.10;99.90;;;;;;5043080;28;20207;-65
2021/01/12 06:24:38;;;;;;;2.90;2.70;;;6.10;99.90;;;;;;5031862;28;20267;-63
2021/01/12 06:27:13;;;;;;;2.80;2.50;;;6.10;99.90;;;;;;5042687;28;20262;-62
2021/01/12 06:29:46;;;;;;;3.27;2.60;;;6.10;99.90;;;;;;5051107;28;20225;-62
2021/01/12 06:32:23;;;;;;;2.90;2.60;;;6.10;99.90;;;;;;5038936;28;20179;-63
2021/01/12 06:34:55;;;;;;;2.80;2.60;;;6.10;99.90;;;;;;5031787;28;20257;-63
2021/01/12 06:37:22;;;;;;;2.57;2.37;;;6.20;99.90;;;;;;5043688;28;20253;-62
2021/01/12 06:39:48;;;;;;;2.77;2.57;;;6.20;99.90;;;;;;5051734;28;20395;-60
2021/01/12 06:42:35;;;;;;;2.73;2.50;;;6.20;99.90;;;;;;5040029;28;20195;-63
2021/01/12 06:45:03;;;;;;;2.40;2.20;;;6.20;99.90;;;;;;5040536;28;20202;-62
2021/01/12 06:47:31;;;;;;;2.10;2.00;;;6.20;99.90;;;;;;5049868;28;20224;-61
2021/01/12 06:50:13;;;;;;;3.20;2.27;;;6.30;99.90;;;;;;5042480;28;20538;-61
2021/01/12 06:52:47;;;;;;;2.00;1.90;;;6.30;99.90;;;;;;5031546;28;20588;-60
2021/01/12 06:55:17;;;;;;;2.40;2.20;;;6.30;99.90;;;;;;5039768;28;20252;-63
2021/01/12 06:57:54;;;;;;;3.47;2.60;;;6.30;99.90;;;;;;5051164;28;20220;-64
2021/01/12 07:00:21;;;;;;;2.67;2.47;;;6.40;99.90;;;;;;5040406;28;20262;-61
2021/01/12 07:02:57;;;;;;;3.93;2.67;;;6.30;99.90;;;;;;5031263;28;20206;-64
2021/01/12 07:05:23;;;;;;;4.33;2.13;;;6.40;99.90;;;;;;5041242;28;20202;-61
2021/01/12 07:07:53;;;;;;;2.40;2.03;;;6.40;99.90;;;;;;5050877;28;20636;-64
2021/01/12 07:10:23;;;;;;;3.73;2.43;;;6.40;99.90;;;;;;5041537;28;20179;-64
2021/01/12 07:12:50;;;;;;;2.53;2.33;;;6.40;99.90;;;;;;5036372;28;20232;-63
2021/01/12 07:15:23;;;;;;;5.43;2.63;;;6.40;99.90;;;;;;5050918;28;20194;-63
2021/01/12 07:17:50;;;;;;;2.53;2.30;;;6.40;99.90;;;;;;5045749;28;20178;-64
2021/01/12 07:20:26;;;;;;;1.97;1.87;;;6.40;99.90;;;;;;5031176;28;20254;-62
2021/01/12 07:22:55;;;;;;;2.57;2.37;;;6.50;99.90;;;;;;5035662;28;20213;-63
2021/01/12 07:25:34;;;;;;;3.60;2.53;;;6.50;99.90;;;;;;5050708;28;20242;-62
2021/01/12 07:28:08;;;;;;;2.00;1.90;;;6.50;99.90;;;;;;5045211;28;20175;-63
2021/01/12 07:30:39;;;;;;;2.93;2.30;;;6.50;99.90;;;;;;5030397;28;20724;-59
2021/01/12 07:33:29;;;;;;;2.47;2.07;;;6.50;99.90;;;;;;5036246;28;20182;-63
2021/01/12 07:35:59;;;;;;;2.53;2.33;;;6.50;99.90;;;;;;5043181;28;20211;-62
2021/01/12 07:38:30;;;;;;;2.57;2.37;;;6.50;99.90;;;;;;5038156;28;20174;-64
2021/01/12 07:40:58;;;;;;;3.10;2.90;;;6.50;99.90;;;;;;5046796;28;20221;-65
2021/01/12 07:43:24;;;;;;;2.37;2.17;;;6.60;99.90;;;;;;5037964;28;20203;-64
2021/01/12 07:45:52;;;;;;;2.70;2.50;;;6.60;99.90;;;;;;5049324;28;20222;-64
2021/01/12 07:48:18;;;;;;;2.87;2.27;;;6.60;99.90;;;;;;5050360;28;20167;-64
2021/01/12 07:50:45;;;;;;;2.53;2.33;;;6.60;99.90;;;;;;5038923;28;20176;-64
2021/01/12 07:53:13;;;;;;;3.10;2.80;;;6.70;99.90;;;;;;5031016;28;20179;-63
2021/01/12 07:55:42;;;;;;;4.23;2.90;;;6.70;99.90;;;;;;5041155;28;20205;-63
2021/01/12 07:58:13;;;;;;;4.03;3.43;;;6.70;99.90;;;;;;5041153;28;20198;-64
2021/01/12 08:00:39;;;;;;;4.27;3.07;;;6.80;99.90;;;;;;5038990;28;20667;-63
2021/01/12 08:03:05;;;;;;;7.93;4.67;;;6.80;99.90;;;;;;5054331;28;20709;-63
2021/01/12 08:05:32;;;;;;;5.00;4.00;;;6.90;99.90;;;;;;5047773;28;20287;-63
2021/01/12 08:08:04;;;;;;;4.07;3.67;;;7.00;99.90;;;;;;5034032;28;20176;-63
2021/01/12 08:10:34;;;;;;;6.40;5.80;;;7.00;99.90;;;;;;5048325;28;20182;-64
2021/01/12 08:13:13;;;;;;;6.07;4.50;;;7.10;99.90;;;;;;5054073;28;20171;-65
2021/01/12 08:15:43;;;;;;;7.23;4.70;;;7.20;99.90;;;;;;5038676;28;20226;-62
2021/01/12 08:18:17;;;;;;;10.83;7.63;;;7.20;99.90;;;;;;5033922;28;20171;-65
2021/01/12 08:20:44;;;;;;;8.73;5.83;;;7.30;99.90;;;;;;5049113;28;20263;-62
2021/01/12 08:23:11;;;;;;;9.00;6.70;;;7.30;99.90;;;;;;5053635;28;20713;-61
2021/01/12 08:25:37;;;;;;;8.60;6.90;;;7.40;99.90;;;;;;5052084;28;20206;-63
2021/01/12 08:28:04;;;;;;;9.83;6.00;;;7.40;99.90;;;;;;5053794;28;20225;-64
2021/01/12 08:30:34;;;;;;;5.53;5.03;;;7.40;99.90;;;;;;5040217;28;20536;-62
2021/01/12 08:33:10;;;;;;;4.37;3.53;;;7.40;99.90;;;;;;5033916;28;20254;-63
2021/01/12 08:36:05;;;;;;;3.97;3.50;;;7.40;99.90;;;;;;5045861;28;20205;-63
2021/01/12 08:38:33;;;;;;;3.90;3.50;;;7.40;99.90;;;;;;5053213;28;20191;-64
2021/01/12 08:41:03;;;;;;;2.30;2.10;;;7.40;99.90;;;;;;5038348;28;20615;-63
2021/01/12 08:43:30;;;;;;;2.60;2.40;;;7.40;99.90;;;;;;5047095;28;20199;-61
2021/01/12 08:46:03;;;;;;;2.63;2.20;;;7.40;99.90;;;;;;5053494;28;20240;-63
2021/01/12 08:48:29;;;;;;;2.70;2.50;;;7.40;99.90;;;;;;5039682;28;20270;-63
2021/01/12 08:50:55;;;;;;;4.07;2.40;;;7.40;99.90;;;;;;5033631;28;20171;-63
2021/01/12 08:53:28;;;;;;;2.20;2.10;;;7.40;99.90;;;;;;5044576;28;20241;-63
2021/01/12 08:56:04;;;;;;;3.53;2.73;;;7.40;99.90;;;;;;5053266;28;20195;-63
2021/01/12 08:58:29;;;;;;;2.10;2.00;;;7.40;99.90;;;;;;5040361;28;20187;-64
2021/01/12 09:00:55;;;;;;;2.90;2.40;;;7.40;99.90;;;;;;5033686;28;20656;-62
2021/01/12 09:03:21;;;;;;;2.63;2.43;;;7.50;99.90;;;;;;5033937;28;20199;-63
2021/01/12 09:05:51;;;;;;;2.80;2.60;;;7.50;99.90;;;;;;5033214;28;20199;-63
2021/01/12 09:08:19;;;;;;;2.97;2.67;;;7.50;99.90;;;;;;5042084;28;20194;-64
2021/01/12 09:10:45;;;;;;;2.80;2.50;;;7.50;99.90;;;;;;5053196;28;20168;-63
2021/01/12 09:13:11;;;;;;;3.00;2.80;;;7.50;99.90;;;;;;5044226;28;20526;-64
2021/01/12 09:15:39;;;;;;;2.60;2.40;;;7.60;99.90;;;;;;5032967;28;20234;-63
2021/01/12 09:18:06;;;;;;;3.07;2.70;;;7.60;99.90;;;;;;5039052;28;20225;-63
2021/01/12 09:20:33;;;;;;;3.33;3.03;;;7.50;99.90;;;;;;5052796;28;20178;-65
2021/01/12 09:23:04;;;;;;;4.63;3.10;;;7.50;99.90;;;;;;5047540;28;20203;-63
2021/01/12 09:25:29;;;;;;;3.27;2.97;;;7.60;99.90;;;;;;5032630;28;20203;-63
2021/01/12 09:28:15;;;;;;;2.80;2.60;;;7.60;99.90;;;;;;5036145;28;20171;-63
2021/01/12 09:30:43;;;;;;;2.90;2.60;;;7.60;99.90;;;;;;5049301;28;20626;-63
2021/01/12 09:33:22;;;;;;;3.07;2.63;;;7.50;99.90;;;;;;5032612;28;20236;-63
2021/01/12 09:35:48;;;;;;;2.83;2.63;;;7.50;99.90;;;;;;5035402;28;20198;-64
2021/01/12 09:38:13;;;;;;;4.20;3.80;;;7.50;99.90;;;;;;5052174;28;20174;-63
2021/01/12 09:40:39;;;;;;;3.20;2.90;;;7.60;99.90;;;;;;5051480;28;20209;-63
2021/01/12 09:43:05;;;;;;;3.40;3.10;;;7.60;99.90;;;;;;5032449;28;20210;-64
2021/01/12 09:45:30;;;;;;;4.17;3.03;;;7.60;99.90;;;;;;5032184;28;20198;-63
2021/01/12 09:47:56;;;;;;;4.50;3.77;;;7.60;99.90;;;;;;5051147;28;20256;-61
2021/01/12 09:50:22;;;;;;;4.63;4.17;;;7.60;99.90;;;;;;5052185;28;20659;-63
2021/01/12 09:52:48;;;;;;;4.23;3.83;;;7.60;99.90;;;;;;5034794;28;20190;-62
2021/01/12 09:55:13;;;;;;;4.27;3.60;;;7.70;99.90;;;;;;5032115;28;20195;-63
2021/01/12 09:57:39;;;;;;;3.87;3.53;;;7.70;99.90;;;;;;5050492;28;20183;-64
2021/01/12 10:00:07;;;;;;;4.10;3.70;;;7.70;99.90;;;;;;5052080;28;20171;-63
2021/01/12 10:02:33;;;;;;;4.70;3.83;;;7.70;99.90;;;;;;5048498;28;20203;-62
2021/01/12 10:04:59;;;;;;;5.10;3.93;;;7.70;99.90;;;;;;5052031;28;20664;-64
2021/01/12 10:07:25;;;;;;;3.60;3.30;;;7.70;99.90;;;;;;5035183;28;20223;-63
2021/01/12 10:09:50;;;;;;;4.93;3.80;;;7.70;99.90;;;;;;5032314;28;20570;-62
2021/01/12 10:12:16;;;;;;;4.00;3.60;;;7.80;99.90;;;;;;5045819;28;20178;-60
2021/01/12 10:14:42;;;;;;;5.53;4.10;;;7.80;99.90;;;;;;5051409;28;20534;-63
2021/01/12 10:17:08;;;;;;;3.63;3.27;;;7.80;99.90;;;;;;5031635;28;20250;-65
2021/01/12 10:19:34;;;;;;;3.83;3.43;;;7.80;99.90;;;;;;5031744;28;20174;-64
2021/01/12 10:22:00;;;;;;;4.37;3.40;;;7.80;99.90;;;;;;5050068;28;20191;-64
2021/01/12 10:24:25;;;;;;;4.07;3.77;;;7.80;99.90;;;;;;5050894;28;20531;-66
2021/01/12 10:26:54;;;;;;;3.63;3.27;;;7.80;99.90;;;;;;5049846;28;20668;-63
2021/01/12 10:29:22;;;;;;;3.73;2.73;;;7.80;99.90;;;;;;5050664;28;20249;-64
2021/01/12 10:31:49;;;;;;;4.40;3.57;;;7.80;99.90;;;;;;5035468;28;20634;-65
2021/01/12 10:34:15;;;;;;;3.10;2.80;;;7.80;99.90;;;;;;5030387;28;20171;-63
2021/01/12 10:36:41;;;;;;;2.70;2.20;;;7.80;99.90;;;;;;5045629;28;20195;-66
2021/01/12 10:39:06;;;;;;;3.17;2.30;;;7.70;99.90;;;;;;5051478;28;20193;-64
2021/01/12 10:41:38;;;;;;;2.43;2.23;;;7.60;99.90;;;;;;5038970;28;20262;-65
2021/01/12 10:44:04;;;;;;;3.80;2.13;;;7.70;99.90;;;;;;5031108;28;20178;-64
2021/01/12 10:46:30;;;;;;;6.97;2.33;;;7.70;99.90;;;;;;5050512;28;20214;-65
2021/01/12 10:48:56;;;;;;;2.90;2.33;;;7.70;99.90;;;;;;5051790;28;20174;-63
2021/01/12 10:51:21;;;;;;;2.43;2.23;;;7.80;99.90;;;;;;5035264;28;20179;-64
2021/01/12 10:53:47;;;;;;;3.37;2.13;;;7.80;99.90;;;;;;5031934;28;20191;-66
2021/01/12 10:56:16;;;;;;;3.00;2.67;;;7.90;99.90;;;;;;5046920;28;20202;-64
2021/01/12 10:58:42;;;;;;;4.63;3.10;;;8.00;99.90;;;;;;5051305;28;20225;-65
2021/01/12 11:01:08;;;;;;;3.60;2.87;;;8.10;99.90;;;;;;5037748;28;20195;-64
2021/01/12 11:03:33;;;;;;;4.07;3.10;;;8.20;99.90;;;;;;5031373;28;20638;-65
2021/01/12 11:05:59;;;;;;;4.37;2.63;;;8.20;99.90;;;;;;5043329;28;20225;-64
2021/01/12 11:08:25;;;;;;;5.50;3.33;;;8.30;99.90;;;;;;5051129;28;20190;-65
2021/01/12 11:10:52;;;;;;;4.03;2.40;;;8.40;99.90;;;;;;5040981;28;20236;-65
2021/01/12 11:13:17;;;;;;;3.60;2.47;;;8.30;99.90;;;;;;5031989;28;20190;-64
2021/01/12 11:15:44;;;;;;;4.50;2.40;;;8.40;99.90;;;;;;5031481;28;20685;-64
2021/01/12 11:18:10;;;;;;;2.43;2.23;;;8.40;99.90;;;;;;5034127;28;20183;-64
2021/01/12 11:20:36;;;;;;;1.97;1.80;;;8.20;99.90;;;;;;5050995;28;20312;-64
2021/01/12 11:23:01;;;;;;;1.80;1.70;;;8.10;99.90;;;;;;5049037;28;20285;-65
2021/01/12 11:27:55;;;;;;;1.97;1.87;;;7.90;99.90;;;;;;5029234;28;20223;-66
2021/01/12 11:30:21;;;;;;;2.50;2.30;;;7.70;99.90;;;;;;5030991;28;20225;-65
2021/01/12 11:32:47;;;;;;;2.77;2.57;;;7.70;99.90;;;;;;5030437;28;20655;-65
2021/01/12 11:35:14;;;;;;;3.50;2.80;;;7.60;99.90;;;;;;5032105;28;20187;-65
2021/01/12 11:37:39;;;;;;;4.10;3.30;;;7.50;99.90;;;;;;5030944;28;20188;-65
2021/01/12 11:40:07;;;;;;;4.27;3.63;;;7.50;99.90;;;;;;5015200;28;20172;-65
2021/01/12 11:42:32;;;;;;;4.43;4.00;;;7.50;99.90;;;;;;5016671;28;20247;-65
2021/01/12 11:44:58;;;;;;;4.03;3.57;;;7.40;99.90;;;;;;5034750;28;20172;-64
2021/01/12 11:47:24;;;;;;;4.87;4.07;;;7.40;99.90;;;;;;5033739;28;20290;-64
2021/01/12 11:49:49;;;;;;;4.43;4.00;;;7.40;99.90;;;;;;5014972;28;20195;-65
2021/01/12 11:52:17;;;;;;;4.80;3.87;;;7.40;99.90;;;;;;5014706;28;20178;-65
2021/01/12 11:54:42;;;;;;;5.87;4.07;;;7.40;99.90;;;;;;5033221;28;20262;-64
2021/01/12 11:57:10;;;;;;;4.33;3.93;;;7.30;99.90;;;;;;5032548;28;20282;-65
2021/01/12 11:59:36;;;;;;;6.00;3.80;;;7.30;99.90;;;;;;5034573;28;20262;-65
2021/01/12 12:02:02;;;;;;;4.23;3.33;;;7.30;99.90;;;;;;5032191;28;20290;-65
2021/01/12 12:04:28;;;;;;;3.13;2.83;;;7.20;99.90;;;;;;5034200;28;20176;-65
2021/01/12 12:07:02;;;;;;;4.47;3.30;;;7.10;99.90;;;;;;5022686;28;20262;-65
2021/01/12 12:09:34;;;;;;;3.87;3.33;;;7.00;99.90;;;;;;5014263;28;20227;-65
2021/01/12 12:12:01;;;;;;;4.30;2.73;;;7.00;99.90;;;;;;5026159;28;20187;-65
2021/01/12 12:14:28;;;;;;;2.40;2.20;;;7.00;99.90;;;;;;5034243;28;20175;-65
2021/01/12 12:16:57;;;;;;;1.87;1.77;;;7.00;99.90;;;;;;5018158;28;20261;-66
2021/01/12 12:19:26;;;;;;;2.60;2.40;;;7.00;99.90;;;;;;5016455;28;20175;-65
2021/01/12 12:21:54;;;;;;;2.30;2.10;;;7.00;99.90;;;;;;5034512;28;20207;-65
2021/01/12 12:24:22;;;;;;;2.20;2.00;;;7.00;99.90;;;;;;5032793;28;20544;-65
2021/01/12 12:26:49;;;;;;;1.60;1.50;;;7.00;99.90;;;;;;5014138;28;20623;-65
2021/01/12 12:29:15;;;;;;;1.70;1.60;;;6.90;99.90;;;;;;5014213;28;20179;-65
2021/01/12 12:31:41;;;;;;;1.73;1.50;;;6.90;99.90;;;;;;5031246;28;20168;-65
2021/01/12 12:34:07;;;;;;;2.50;1.90;;;6.80;99.90;;;;;;5014790;28;20173;-65
2021/01/12 12:36:33;;;;;;;1.80;1.70;;;6.70;99.90;;;;;;5031872;28;20683;-65
2021/01/12 12:38:59;;;;;;;2.07;1.90;;;6.80;99.90;;;;;;5026163;28;20241;-66
2021/01/12 12:41:25;;;;;;;1.93;1.73;;;6.80;99.90;;;;;;5013941;28;20255;-65
2021/01/12 12:43:50;;;;;;;4.70;2.00;;;6.90;99.90;;;;;;5019955;28;20544;-65
2021/01/12 12:46:18;;;;;;;3.53;2.00;;;6.90;99.90;;;;;;5033423;28;20192;-64
2021/01/12 12:48:45;;;;;;;2.00;1.80;;;6.90;99.90;;;;;;5028828;28;20200;-65
2021/01/12 12:51:13;;;;;;;2.00;1.80;;;6.90;99.90;;;;;;5014098;28;20242;-65
2021/01/12 12:53:41;;;;;;;3.63;1.80;;;6.90;99.90;;;;;;5016556;28;20651;-65
2021/01/12 12:56:13;;;;;;;1.97;1.80;;;6.90;99.90;;;;;;5033959;28;20198;-65
2021/01/12 12:58:39;;;;;;;2.20;2.00;;;6.90;99.90;;;;;;5030589;28;20578;-65
2021/01/12 13:01:06;;;;;;;2.97;2.00;;;6.90;99.90;;;;;;5013707;28;20182;-65